createdAt,value
2019-05-06T00:02:01.980Z,51.10
2019-05-06T00:04:34.096Z,51.30
2019-05-06T00:07:05.027Z,51.50
2019-05-06T00:09:35.507Z,51.60
2019-05-06T00:12:06.519Z,51.80
2019-05-06T00:14:37.223Z,52.00
2019-05-06T00:17:07.681Z,52.10
2019-05-06T00:19:38.047Z,52.30
2019-05-06T00:22:09.717Z,52.50
2019-05-06T00:24:46.791Z,53.30
2019-05-06T00:27:24.687Z,52.80
2019-05-06T00:29:55.147Z,52.90
2019-05-06T00:32:25.781Z,53.10
2019-05-06T00:34:56.775Z,53.20
2019-05-06T00:37:29.181Z,53.30
2019-05-06T00:40:11.567Z,53.40
2019-05-06T00:43:00.856Z,53.70
2019-05-06T00:45:33.993Z,53.70
2019-05-06T00:48:06.304Z,54.40
2019-05-06T00:50:36.589Z,54.00
2019-05-06T00:53:08.907Z,54.30
2019-05-06T00:55:39.302Z,54.70
2019-05-06T00:58:09.673Z,54.70
2019-05-06T01:00:40.050Z,54.70
2019-05-06T01:03:10.290Z,54.70
2019-05-06T01:05:40.571Z,55.10
2019-05-06T01:08:10.895Z,55.10
2019-05-06T01:10:41.280Z,55.20
2019-05-06T01:13:29.979Z,55.20
2019-05-06T01:16:00.283Z,55.40
2019-05-06T01:18:30.576Z,55.40
2019-05-06T01:21:10.325Z,55.60
2019-05-06T01:23:44.103Z,55.80
2019-05-06T01:26:16.263Z,55.90
2019-05-06T01:28:47.204Z,56.00
2019-05-06T01:31:17.895Z,56.30
2019-05-06T01:33:48.131Z,56.50
2019-05-06T01:36:19.056Z,56.50
2019-05-06T01:39:14.263Z,56.70
2019-05-06T01:41:56.502Z,57.00
2019-05-06T01:44:27.170Z,57.00
2019-05-06T01:46:57.588Z,56.80
2019-05-06T01:49:28.224Z,56.90
2019-05-06T01:51:58.853Z,56.80
2019-05-06T01:54:29.128Z,56.70
2019-05-06T01:56:59.499Z,56.60
2019-05-06T01:59:29.751Z,56.50
2019-05-06T02:02:01.267Z,56.20
2019-05-06T02:04:33.710Z,56.10
2019-05-06T02:07:04.383Z,56.00
2019-05-06T02:09:35.023Z,56.00
2019-05-06T02:12:08.342Z,56.00
2019-05-06T02:14:38.665Z,55.90
2019-05-06T02:17:09.304Z,55.90
2019-05-06T02:19:39.663Z,55.80
2019-05-06T02:22:18.279Z,55.60
2019-05-06T02:24:53.585Z,55.40
2019-05-06T02:27:24.716Z,55.30
2019-05-06T02:30:01.126Z,55.10
2019-05-06T02:32:38.903Z,55.00
2019-05-06T02:35:18.209Z,55.00
2019-05-06T02:37:48.593Z,54.90
2019-05-06T02:40:25.868Z,54.90
2019-05-06T02:42:56.180Z,54.80
2019-05-06T02:45:26.956Z,54.70
2019-05-06T02:48:13.819Z,54.70
2019-05-06T02:50:59.660Z,54.70
2019-05-06T02:53:33.118Z,54.60
2019-05-06T02:56:04.156Z,54.50
2019-05-06T02:58:34.515Z,54.50
2019-05-06T03:01:04.925Z,54.50
2019-05-06T03:03:35.222Z,54.60
2019-05-06T03:06:05.580Z,54.60
2019-05-06T03:08:35.917Z,54.70
2019-05-06T03:11:06.244Z,54.70
2019-05-06T03:13:36.645Z,55.40
2019-05-06T03:16:07.030Z,54.80
2019-05-06T03:18:37.428Z,54.80
2019-05-06T03:21:26.053Z,54.90
2019-05-06T03:24:03.928Z,54.90
2019-05-06T03:26:34.242Z,54.90
2019-05-06T03:29:04.565Z,54.90
2019-05-06T03:31:36.631Z,54.90
2019-05-06T03:34:36.536Z,54.90
2019-05-06T03:36:42.317Z,54.80
2019-05-06T03:39:13.896Z,54.80
2019-05-06T03:41:43.966Z,54.70
2019-05-06T03:44:16.658Z,54.60
2019-05-06T03:47:15.050Z,54.70
2019-05-06T03:49:50.209Z,54.90
2019-05-06T03:52:23.259Z,54.90
2019-05-06T03:54:56.021Z,54.90
2019-05-06T03:57:29.468Z,54.90
2019-05-06T04:00:04.506Z,54.90
2019-05-06T04:02:33.809Z,55.00
2019-05-06T04:05:04.442Z,55.20
2019-05-06T04:07:36.443Z,55.20
2019-05-06T04:10:07.603Z,55.40
2019-05-06T04:12:39.588Z,55.50
2019-05-06T04:15:13.871Z,55.60
2019-05-06T04:17:56.480Z,55.60
2019-05-06T04:20:43.374Z,55.50
2019-05-06T04:23:26.679Z,55.40
2019-05-06T04:26:23.957Z,55.30
2019-05-06T08:11:25.975Z,43.10
2019-05-06T08:13:55.381Z,42.70
2019-05-06T08:16:27.687Z,42.80
2019-05-06T08:18:58.241Z,42.80
2019-05-06T08:21:32.587Z,42.70
2019-05-06T08:24:02.799Z,42.40
2019-05-06T08:26:33.426Z,42.30
2019-05-06T08:29:06.029Z,42.60
2019-05-06T08:31:38.769Z,42.60
2019-05-06T08:34:12.126Z,42.80
2019-05-06T08:37:02.464Z,42.80
2019-05-06T08:39:35.531Z,42.70
2019-05-06T08:42:06.565Z,42.80
2019-05-06T08:44:37.136Z,42.80
2019-05-06T08:47:10.169Z,43.30
2019-05-06T08:50:02.350Z,42.40
2019-05-06T08:52:52.409Z,42.30
2019-05-06T08:55:29.577Z,42.30
2019-05-06T08:58:18.151Z,42.10
2019-05-06T09:00:59.720Z,42.20
2019-05-06T09:03:42.170Z,42.10
2019-05-06T09:06:26.974Z,41.90
2019-05-06T09:08:46.908Z,41.20
2019-05-06T09:11:25.221Z,39.90
2019-05-06T09:13:54.925Z,39.80
2019-05-06T09:16:32.929Z,39.70
2019-05-06T09:19:06.872Z,39.50
2019-05-06T09:21:49.452Z,39.30
2019-05-06T09:24:38.478Z,39.10
2019-05-06T09:27:23.707Z,39.30
2019-05-06T09:29:59.845Z,39.40
2019-05-06T09:32:36.289Z,39.50
2019-05-06T09:35:12.951Z,39.10
2019-05-06T09:37:43.150Z,38.60
2019-05-06T09:40:14.622Z,37.80
2019-05-06T09:42:45.000Z,37.20
2019-05-06T09:45:17.007Z,37.00
2019-05-06T09:47:57.156Z,37.00
2019-05-06T09:50:46.140Z,36.80
2019-05-06T09:53:26.997Z,36.70
2019-05-06T09:56:33.508Z,36.60
2019-05-06T09:59:07.671Z,36.80
2019-05-06T10:01:38.034Z,37.00
2019-05-06T10:04:08.818Z,37.00
2019-05-06T10:06:55.836Z,37.10
2019-05-06T10:09:15.949Z,37.00
2019-05-06T10:11:47.252Z,36.10
2019-05-06T10:14:19.098Z,36.00
2019-05-06T10:16:53.021Z,36.20
2019-05-06T10:19:24.790Z,36.30
2019-05-06T10:21:58.948Z,36.50
2019-05-06T10:24:32.871Z,36.50
2019-05-06T10:27:03.691Z,36.90
2019-05-06T10:29:59.455Z,36.70
2019-05-06T10:32:43.483Z,36.40
2019-05-06T10:35:13.903Z,36.80
2019-05-06T10:38:32.447Z,37.10
2019-05-06T10:41:08.546Z,37.10
2019-05-06T10:43:55.003Z,36.90
2019-05-06T10:46:25.466Z,36.80
2019-05-06T10:48:58.809Z,36.50
2019-05-06T10:51:37.263Z,36.70
2019-05-06T10:54:12.285Z,36.40
2019-05-06T10:57:03.860Z,35.50
2019-05-06T10:59:34.232Z,34.40
2019-05-06T11:02:23.296Z,34.00
2019-05-06T11:04:58.207Z,33.80
2019-05-06T11:07:36.412Z,33.60
2019-05-06T11:10:07.030Z,33.70
2019-05-06T11:12:37.494Z,33.70
2019-05-06T11:17:38.131Z,33.60
2019-05-06T11:20:11.402Z,33.20
2019-05-06T11:22:43.565Z,33.20
2019-05-06T11:25:16.779Z,33.60
2019-05-06T11:27:56.623Z,33.80
2019-05-06T11:30:52.940Z,33.80
2019-05-06T11:33:45.667Z,33.80
2019-05-06T11:36:23.048Z,33.80
2019-05-06T11:38:54.465Z,33.90
2019-05-06T11:41:29.488Z,33.40
2019-05-06T11:44:00.280Z,33.20
2019-05-06T11:46:32.230Z,33.10
2019-05-06T11:49:12.460Z,33.20
2019-05-06T11:51:43.689Z,33.10
2019-05-06T11:54:20.757Z,33.10
2019-05-06T11:56:51.502Z,33.10
2019-05-06T11:59:27.037Z,32.70
2019-05-06T12:02:07.563Z,32.80
2019-05-06T12:04:41.924Z,32.40
2019-05-06T12:07:15.667Z,32.40
2019-05-06T12:09:46.518Z,31.90
2019-05-06T12:12:20.113Z,31.30
2019-05-06T12:15:08.060Z,31.00
2019-05-06T12:18:23.232Z,30.90
2019-05-06T12:21:07.964Z,30.80
2019-05-06T12:23:26.835Z,30.80
2019-05-06T12:25:57.746Z,30.80
2019-05-06T12:28:28.117Z,30.60
2019-05-06T12:30:58.983Z,30.50
2019-05-06T12:33:35.883Z,30.50
2019-05-06T12:36:18.322Z,30.40
2019-05-06T12:39:09.853Z,30.60
2019-05-06T12:41:59.703Z,30.40
2019-05-06T12:44:33.836Z,30.50
2019-05-06T12:47:24.135Z,30.40
2019-05-06T12:49:58.893Z,30.70
2019-05-06T12:52:29.607Z,30.90
2019-05-06T12:55:17.467Z,31.00
2019-05-06T12:57:34.496Z,31.20
2019-05-06T13:00:06.035Z,31.20
2019-05-06T13:02:36.378Z,31.20
2019-05-06T13:05:07.185Z,31.10
2019-05-06T13:07:47.411Z,31.10
2019-05-06T13:10:23.058Z,31.00
2019-05-06T13:13:05.221Z,30.90
2019-05-06T13:15:52.706Z,30.80
2019-05-06T13:18:19.492Z,31.00
2019-05-06T13:20:53.168Z,31.30
2019-05-06T13:23:35.107Z,31.60
2019-05-06T13:26:04.906Z,31.60
2019-05-06T13:28:44.448Z,31.90
2019-05-06T13:31:21.526Z,32.00
2019-05-06T13:33:58.635Z,32.00
2019-05-06T13:36:38.289Z,32.00
2019-05-06T13:39:15.050Z,32.20
2019-05-06T13:41:49.344Z,32.00
2019-05-06T13:44:24.670Z,31.80
2019-05-06T13:46:58.390Z,31.00
2019-05-06T13:49:53.823Z,31.60
2019-05-06T13:52:27.630Z,31.50
2019-05-06T13:54:58.148Z,31.60
2019-05-06T13:57:29.362Z,31.90
2019-05-06T14:00:06.544Z,32.00
2019-05-06T14:03:02.113Z,31.90
2019-05-06T14:05:33.405Z,32.10
2019-05-06T14:08:04.844Z,32.20
2019-05-06T14:10:35.756Z,32.30
2019-05-06T14:13:10.288Z,32.20
2019-05-06T14:15:42.067Z,32.30
2019-05-06T14:18:13.618Z,32.50
2019-05-06T14:20:45.800Z,32.10
2019-05-06T14:23:16.568Z,32.30
2019-05-06T14:26:04.978Z,32.90
2019-05-06T14:28:54.628Z,33.00
2019-05-06T14:31:32.797Z,33.00
2019-05-06T14:34:03.705Z,33.10
2019-05-06T14:36:36.104Z,32.80
2019-05-06T14:39:14.678Z,32.70
2019-05-06T14:41:55.001Z,32.60
2019-05-06T14:44:32.659Z,32.20
2019-05-06T14:47:20.217Z,32.20
2019-05-06T14:49:52.994Z,32.00
2019-05-06T14:52:29.243Z,31.90
2019-05-06T14:55:22.483Z,32.10
2019-05-06T14:58:18.512Z,32.20
2019-05-06T15:00:53.450Z,32.20
2019-05-06T15:04:17.799Z,32.20
2019-05-06T15:07:06.486Z,32.20
2019-05-06T15:09:53.617Z,32.20
2019-05-06T15:12:19.536Z,32.20
2019-05-06T15:14:53.292Z,32.40
2019-05-06T15:17:24.498Z,32.60
2019-05-06T15:19:56.516Z,32.80
2019-05-06T15:22:30.184Z,33.00
2019-05-06T15:25:02.407Z,32.90
2019-05-06T15:27:33.650Z,33.00
2019-05-06T15:30:07.139Z,33.10
2019-05-06T15:32:39.623Z,33.10
2019-05-06T15:35:25.993Z,32.90
2019-05-06T15:38:02.397Z,32.90
2019-05-06T15:40:36.619Z,32.90
2019-05-06T15:43:07.553Z,32.80
2019-05-06T15:45:43.089Z,32.90
2019-05-06T15:48:13.723Z,33.00
2019-05-06T15:50:47.358Z,33.30
2019-05-06T15:53:18.401Z,33.20
2019-05-06T15:55:53.280Z,33.20
2019-05-06T15:58:22.952Z,33.40
2019-05-06T16:00:56.653Z,33.40
2019-05-06T16:03:27.085Z,33.80
2019-05-06T16:05:57.687Z,33.90
2019-05-06T16:08:32.087Z,34.10
2019-05-06T16:11:03.064Z,34.20
2019-05-06T16:13:33.437Z,34.50
2019-05-06T16:16:06.870Z,34.60
2019-05-06T16:18:35.987Z,34.40
2019-05-06T16:21:06.852Z,34.30
2019-05-06T16:23:44.945Z,34.30
2019-05-06T16:26:15.893Z,35.00
2019-05-06T16:28:46.525Z,34.30
2019-05-06T16:31:16.878Z,34.30
2019-05-06T16:33:47.163Z,34.60
2019-05-06T16:36:17.858Z,35.20
2019-05-06T16:38:48.186Z,34.90
2019-05-06T16:41:18.792Z,34.50
2019-05-06T16:43:49.427Z,35.10
2019-05-06T16:46:19.748Z,35.20
2019-05-06T16:48:52.447Z,35.20
2019-05-06T16:51:23.703Z,35.30
2019-05-06T16:53:54.127Z,35.40
2019-05-06T16:56:39.501Z,34.90
2019-05-06T16:59:12.794Z,35.30
2019-05-06T17:01:47.476Z,35.40
2019-05-06T17:04:35.032Z,35.30
2019-05-06T17:07:15.966Z,35.20
2019-05-06T17:09:48.868Z,35.50
2019-05-06T17:12:19.320Z,35.20
2019-05-06T17:14:49.630Z,35.50
2019-05-06T17:17:22.863Z,35.50
2019-05-06T17:19:54.953Z,35.60
2019-05-06T17:22:29.744Z,35.60
2019-05-06T17:25:02.413Z,35.70
2019-05-06T17:27:35.199Z,35.80
2019-05-06T17:30:15.818Z,35.90
2019-05-06T17:32:52.588Z,36.00
2019-05-06T17:35:23.532Z,36.00
2019-05-06T17:38:08.874Z,36.10
2019-05-06T17:40:39.547Z,35.70
2019-05-06T17:43:12.997Z,36.30
2019-05-06T17:46:02.213Z,36.40
2019-05-06T17:48:48.219Z,36.40
2019-05-06T17:51:23.983Z,36.40
2019-05-06T17:54:06.272Z,36.40
2019-05-06T17:56:36.733Z,36.50
2019-05-06T17:59:16.576Z,36.60
2019-05-06T18:01:53.020Z,36.60
2019-05-06T18:04:23.231Z,36.70
2019-05-06T18:06:53.915Z,36.70
2019-05-06T18:09:27.387Z,36.70
2019-05-06T18:11:59.697Z,36.90
2019-05-06T18:14:32.639Z,37.20
2019-05-06T18:17:03.618Z,37.20
2019-05-06T18:19:39.862Z,37.10
2019-05-06T18:22:10.167Z,37.30
2019-05-06T18:24:40.563Z,37.40
2019-05-06T18:27:13.401Z,37.70
2019-05-06T18:29:44.701Z,38.20
2019-05-06T18:32:15.671Z,38.10
2019-05-06T18:34:46.021Z,38.30
2019-05-06T18:37:18.779Z,38.30
2019-05-06T18:39:49.443Z,38.40
2019-05-06T18:42:23.612Z,38.60
2019-05-06T18:44:56.064Z,38.70
2019-05-06T18:47:28.060Z,38.90
2019-05-06T18:50:02.496Z,39.00
2019-05-06T18:52:40.712Z,39.90
2019-05-06T18:55:17.778Z,39.40
2019-05-06T18:57:52.629Z,39.70
2019-05-06T19:00:35.977Z,39.80
2019-05-06T19:03:06.487Z,40.10
2019-05-06T19:05:43.231Z,40.20
2019-05-06T19:08:24.812Z,40.40
2019-05-06T19:11:02.431Z,40.40
2019-05-06T19:13:35.210Z,40.60
2019-05-06T19:16:07.563Z,40.80
2019-05-06T19:18:58.935Z,40.90
2019-05-06T19:21:29.386Z,41.00
2019-05-06T19:24:00.027Z,41.60
2019-05-06T19:26:40.048Z,41.20
2019-05-06T19:29:12.342Z,41.40
2019-05-06T19:31:44.979Z,41.50
2019-05-06T19:34:17.081Z,41.50
2019-05-06T19:36:49.357Z,41.60
2019-05-06T19:39:23.920Z,41.80
2019-05-06T19:42:08.249Z,41.90
2019-05-06T19:44:46.758Z,42.00
2019-05-06T19:47:19.869Z,42.00
2019-05-06T19:49:52.984Z,42.10
2019-05-06T19:52:32.029Z,42.20
2019-05-06T19:55:05.897Z,42.30
2019-05-06T19:57:39.902Z,42.40
2019-05-06T20:00:11.644Z,42.50
2019-05-06T20:02:44.822Z,42.50
2019-05-06T20:05:30.918Z,42.50
2019-05-06T20:08:23.178Z,42.60
2019-05-06T20:11:15.460Z,42.70
2019-05-06T20:13:52.586Z,42.80
2019-05-06T20:16:23.503Z,42.90
2019-05-06T20:18:54.394Z,43.00
2019-05-06T20:21:25.845Z,43.10
2019-05-06T20:23:56.531Z,43.50
2019-05-06T20:26:27.141Z,43.70
2019-05-06T20:28:57.798Z,43.90
2019-05-06T20:31:28.589Z,44.20
2019-05-06T20:33:59.589Z,44.10
2019-05-06T20:36:33.141Z,44.30
2019-05-06T20:39:08.309Z,44.30
2019-05-06T20:41:42.559Z,44.60
2019-05-06T20:44:13.244Z,44.60
2019-05-06T20:46:44.136Z,44.60
2019-05-06T20:49:17.419Z,44.70
2019-05-06T20:51:49.505Z,44.90
2019-05-06T20:54:23.768Z,44.90
2019-05-06T20:56:57.756Z,44.80
2019-05-06T20:59:28.879Z,44.80
2019-05-06T21:02:03.067Z,44.80
2019-05-06T21:04:33.825Z,45.00
2019-05-06T21:07:04.534Z,44.90
2019-05-06T21:09:34.918Z,44.90
2019-05-06T21:12:05.632Z,45.10
2019-05-06T21:14:36.391Z,45.20
2019-05-06T21:17:07.559Z,45.90
2019-05-06T21:19:38.301Z,45.40
2019-05-06T21:22:08.699Z,45.50
2019-05-06T21:24:39.036Z,46.00
2019-05-06T21:27:09.363Z,45.70
2019-05-06T21:29:43.143Z,45.90
2019-05-06T21:32:13.959Z,45.90
2019-05-06T21:34:44.634Z,46.20
2019-05-06T21:37:19.050Z,46.00
2019-05-06T21:39:49.865Z,46.30
2019-05-06T21:42:20.500Z,46.40
2019-05-06T21:44:52.262Z,46.50
2019-05-06T21:47:22.912Z,46.70
2019-05-06T21:49:53.333Z,46.70
2019-05-06T21:52:36.294Z,46.80
2019-05-06T21:54:57.218Z,46.90
2019-05-06T21:57:39.405Z,47.00
2019-05-06T22:00:16.965Z,47.20
2019-05-06T22:02:46.657Z,48.10
2019-05-06T22:05:18.896Z,48.20
2019-05-06T22:07:49.790Z,48.40
2019-05-06T22:10:42.254Z,48.70
2019-05-06T22:13:25.489Z,48.90
2019-05-06T22:15:56.004Z,49.00
2019-05-06T22:18:48.888Z,49.10
2019-05-06T22:21:42.604Z,49.30
2019-05-06T22:24:15.743Z,49.40
2019-05-06T22:26:47.751Z,49.40
2019-05-06T22:29:18.632Z,49.70
2019-05-06T22:31:49.264Z,49.90
2019-05-06T22:34:22.202Z,50.10
2019-05-06T22:36:54.318Z,50.30
2019-05-06T22:39:27.905Z,50.60
2019-05-06T22:41:58.333Z,50.80
2019-05-06T22:44:32.327Z,50.80
2019-05-06T22:47:02.744Z,50.80
2019-05-06T22:49:33.646Z,51.10
2019-05-06T22:52:07.846Z,51.20
2019-05-06T22:54:38.401Z,51.30
2019-05-06T22:57:12.039Z,51.40
2019-05-06T22:59:43.243Z,51.40
2019-05-06T23:02:32.224Z,51.50
2019-05-06T23:05:04.497Z,51.50
2019-05-06T23:07:35.683Z,51.50
2019-05-06T23:10:07.496Z,51.50
2019-05-06T23:12:37.951Z,51.70
2019-05-06T23:15:09.458Z,51.80
2019-05-06T23:17:42.275Z,51.90
2019-05-06T23:20:13.468Z,52.00
2019-05-06T23:22:49.355Z,52.00
2019-05-06T23:25:22.042Z,52.10
2019-05-06T23:27:53.226Z,52.10
2019-05-06T23:30:24.228Z,52.10
2019-05-06T23:32:54.839Z,52.10
2019-05-06T23:35:26.320Z,52.20
2019-05-06T23:38:52.433Z,52.40
2019-05-06T23:42:17.041Z,52.50
2019-05-06T23:45:42.508Z,52.30
2019-05-06T23:49:07.882Z,52.30
2019-05-06T23:52:32.210Z,52.20
2019-05-06T23:55:59.232Z,52.30
2019-05-06T23:58:32.200Z,52.40
